GLO8001 SBBV-SBBR
Flight info
| Callsign | GLO8001 |
|---|---|
| Flight time | N/A |
| Altitude | 39000 |
| Route | ANBIX UZ24 OPNAX |
| Aircraft | B738/M-V/N |
Departure
| Time | 2026-04-26 22:38 |
|---|---|
| Airport | Atlas Brasil Cantanhede International Airport (SBBV) |
Arrival
| Time | N/A |
|---|---|
| Airport | Presidente Juscelino Kubitschek International Airport (SBBR) |
| Time | Latitude | Longitude | Altitude | Speed | Heading |
|---|---|---|---|---|---|
| 2026-04-26 22:34 | 2.85176 | -60.67950 | 284 ft | 0 kts | 243° |
| 2026-04-26 22:37 | 2.85176 | -60.67951 | 283 ft | 1 kts | 243° |
| 2026-04-26 22:38 | 2.85069 | -60.68159 | 278 ft | 78 kts | 244° |
| 2026-04-26 22:38 | 2.84695 | -60.68891 | 284 ft | 156 kts | 244° |
| 2026-04-26 22:38 | 2.84159 | -60.70020 | 654 ft | 199 kts | 246° |
| 2026-04-26 22:38 | 2.83521 | -60.71374 | 1131 ft | 232 kts | 245° |
| 2026-04-26 22:39 | 2.82763 | -60.72890 | 1626 ft | 251 kts | 242° |
| 2026-04-26 22:39 | 2.81914 | -60.74471 | 2167 ft | 260 kts | 241° |
| 2026-04-26 22:39 | 2.80791 | -60.75823 | 3120 ft | 252 kts | 214° |
| 2026-04-26 22:39 | 2.79134 | -60.76492 | 3634 ft | 266 kts | 186° |
| 2026-04-26 22:40 | 2.77274 | -60.76419 | 4415 ft | 270 kts | 167° |
| 2026-04-26 22:40 | 2.75423 | -60.76009 | 5252 ft | 273 kts | 165° |
| 2026-04-26 22:40 | 2.73563 | -60.75548 | 6079 ft | 278 kts | 164° |
| 2026-04-26 22:40 | 2.71681 | -60.75073 | 6863 ft | 281 kts | 165° |
| 2026-04-26 22:41 | 2.69767 | -60.74594 | 7675 ft | 284 kts | 165° |
| 2026-04-26 22:41 | 2.67861 | -60.74124 | 8447 ft | 287 kts | 165° |
| 2026-04-26 22:41 | 2.65909 | -60.73647 | 9228 ft | 291 kts | 165° |
| 2026-04-26 22:41 | 2.63931 | -60.73167 | 9984 ft | 294 kts | 166° |
| 2026-04-26 22:42 | 2.61890 | -60.72674 | 10378 ft | 313 kts | 166° |
| 2026-04-26 22:42 | 2.59694 | -60.72146 | 10548 ft | 336 kts | 166° |
| 2026-04-26 22:42 | 2.58134 | -60.71772 | 10805 ft | 345 kts | 166° |
| 2026-04-26 22:42 | 2.55775 | -60.71208 | 11392 ft | 351 kts | 166° |
| 2026-04-26 22:43 | 2.53421 | -60.70645 | 12065 ft | 353 kts | 166° |
| 2026-04-26 22:43 | 2.51018 | -60.70072 | 12741 ft | 356 kts | 166° |
| 2026-04-26 22:43 | 2.48588 | -60.69492 | 13419 ft | 359 kts | 166° |
| 2026-04-26 22:43 | 2.46141 | -60.68909 | 14013 ft | 363 kts | 166° |
| 2026-04-26 22:44 | 2.43669 | -60.68319 | 14586 ft | 366 kts | 166° |
| 2026-04-26 22:44 | 2.41176 | -60.67724 | 15162 ft | 369 kts | 166° |
| 2026-04-26 22:44 | 2.38662 | -60.67124 | 15738 ft | 372 kts | 166° |
| 2026-04-26 22:44 | 2.36161 | -60.66527 | 16305 ft | 375 kts | 165° |
| 2026-04-26 22:45 | 2.33610 | -60.65918 | 16878 ft | 379 kts | 165° |
| 2026-04-26 22:45 | 2.31032 | -60.65303 | 17419 ft | 382 kts | 166° |
| 2026-04-26 22:45 | 2.28434 | -60.64683 | 17951 ft | 386 kts | 165° |
| 2026-04-26 22:45 | 2.25806 | -60.64056 | 18452 ft | 389 kts | 165° |
| 2026-04-26 22:46 | 2.23165 | -60.63426 | 18943 ft | 391 kts | 165° |
| 2026-04-26 22:46 | 2.20507 | -60.62790 | 19434 ft | 393 kts | 164° |
| 2026-04-26 22:46 | 2.17985 | -60.61766 | 19865 ft | 393 kts | 145° |
| 2026-04-26 22:46 | 2.15881 | -60.60041 | 20374 ft | 392 kts | 136° |
| 2026-04-26 22:47 | 2.13905 | -60.58203 | 20860 ft | 393 kts | 135° |
| 2026-04-26 22:47 | 2.11889 | -60.56295 | 21316 ft | 396 kts | 135° |
| 2026-04-26 22:47 | 2.09907 | -60.54419 | 21761 ft | 398 kts | 135° |
| 2026-04-26 22:47 | 2.07885 | -60.52516 | 22215 ft | 400 kts | 135° |
| 2026-04-26 22:48 | 2.05847 | -60.50609 | 22654 ft | 402 kts | 135° |
| 2026-04-26 22:48 | 2.03792 | -60.48696 | 23085 ft | 404 kts | 135° |
| 2026-04-26 22:48 | 2.01724 | -60.46777 | 23513 ft | 406 kts | 135° |
| 2026-04-26 22:48 | 1.99647 | -60.44852 | 23837 ft | 409 kts | 135° |
| 2026-04-26 22:49 | 1.97552 | -60.42914 | 24166 ft | 411 kts | 135° |
| 2026-04-26 22:49 | 1.95444 | -60.40963 | 24505 ft | 413 kts | 135° |
| 2026-04-26 22:49 | 1.93328 | -60.39005 | 24849 ft | 415 kts | 135° |
| 2026-04-26 22:49 | 1.91202 | -60.37037 | 25172 ft | 417 kts | 135° |
| 2026-04-26 22:50 | 1.89065 | -60.35060 | 25487 ft | 420 kts | 135° |
| 2026-04-26 22:50 | 1.86944 | -60.33097 | 25802 ft | 422 kts | 135° |
| 2026-04-26 22:50 | 1.84784 | -60.31099 | 26126 ft | 424 kts | 135° |
| 2026-04-26 22:50 | 1.82615 | -60.29091 | 26423 ft | 426 kts | 135° |
| 2026-04-26 22:51 | 1.80432 | -60.27071 | 26729 ft | 428 kts | 135° |
| 2026-04-26 22:51 | 1.78234 | -60.25038 | 27030 ft | 430 kts | 135° |
| 2026-04-26 22:51 | 1.76033 | -60.23001 | 27328 ft | 432 kts | 135° |
| 2026-04-26 22:51 | 1.73821 | -60.20954 | 27616 ft | 434 kts | 135° |
| 2026-04-26 22:52 | 1.71599 | -60.18898 | 27902 ft | 436 kts | 135° |
| 2026-04-26 22:52 | 1.69365 | -60.16831 | 28181 ft | 438 kts | 135° |
| 2026-04-26 22:52 | 1.67118 | -60.14752 | 28454 ft | 440 kts | 135° |
| 2026-04-26 22:52 | 1.64867 | -60.12669 | 28714 ft | 443 kts | 135° |
| 2026-04-26 22:53 | 1.62599 | -60.10571 | 28927 ft | 446 kts | 135° |
| 2026-04-26 22:53 | 1.60345 | -60.08486 | 29180 ft | 448 kts | 135° |
| 2026-04-26 22:53 | 1.58057 | -60.06369 | 29453 ft | 449 kts | 135° |
| 2026-04-26 22:53 | 1.55757 | -60.04242 | 29712 ft | 451 kts | 135° |
| 2026-04-26 22:54 | 1.53450 | -60.02111 | 29949 ft | 452 kts | 135° |
| 2026-04-26 22:54 | 1.51132 | -59.99969 | 30153 ft | 454 kts | 135° |
| 2026-04-26 22:54 | 1.48803 | -59.97818 | 30349 ft | 456 kts | 135° |
| 2026-04-26 22:54 | 1.46466 | -59.95659 | 30556 ft | 457 kts | 135° |
| 2026-04-26 22:55 | 1.44124 | -59.93495 | 30759 ft | 459 kts | 135° |
| 2026-04-26 22:55 | 1.41772 | -59.91322 | 30977 ft | 460 kts | 135° |
| 2026-04-26 22:55 | 1.39418 | -59.89147 | 31278 ft | 459 kts | 135° |
| 2026-04-26 22:55 | 1.37109 | -59.87014 | 31624 ft | 456 kts | 135° |
| 2026-04-26 22:56 | 1.34785 | -59.84867 | 31979 ft | 454 kts | 135° |
| 2026-04-26 22:56 | 1.32468 | -59.82726 | 32248 ft | 455 kts | 135° |
| 2026-04-26 22:56 | 1.30140 | -59.80574 | 32464 ft | 456 kts | 135° |
| 2026-04-26 22:56 | 1.27805 | -59.78416 | 32691 ft | 457 kts | 135° |
| 2026-04-26 22:57 | 1.25474 | -59.76263 | 33002 ft | 455 kts | 135° |
| 2026-04-26 22:57 | 1.23151 | -59.74116 | 33345 ft | 454 kts | 135° |
| 2026-04-26 22:57 | 1.20839 | -59.71980 | 33649 ft | 453 kts | 135° |
| 2026-04-26 22:57 | 1.18519 | -59.69836 | 33914 ft | 453 kts | 135° |
| 2026-04-26 22:58 | 1.16201 | -59.67694 | 34165 ft | 453 kts | 135° |
| 2026-04-26 22:58 | 1.13889 | -59.65559 | 34423 ft | 452 kts | 135° |
| 2026-04-26 22:58 | 1.11580 | -59.63425 | 34670 ft | 452 kts | 135° |
| 2026-04-26 22:58 | 1.09278 | -59.61298 | 34903 ft | 451 kts | 135° |
| 2026-04-26 22:59 | 1.06972 | -59.59166 | 35145 ft | 451 kts | 136° |
| 2026-04-26 22:59 | 1.04666 | -59.57033 | 35381 ft | 451 kts | 136° |
| 2026-04-26 22:59 | 1.02362 | -59.54902 | 35607 ft | 450 kts | 136° |
| 2026-04-26 22:59 | 1.00091 | -59.52802 | 35831 ft | 450 kts | 136° |
| 2026-04-26 23:00 | 0.97796 | -59.50680 | 36058 ft | 450 kts | 136° |
| 2026-04-26 23:00 | 0.95508 | -59.48565 | 36347 ft | 447 kts | 136° |
| 2026-04-26 23:00 | 0.93220 | -59.46448 | 36559 ft | 448 kts | 136° |
| 2026-04-26 23:00 | 0.90931 | -59.44331 | 36723 ft | 449 kts | 136° |
| 2026-04-26 23:01 | 0.88639 | -59.42211 | 36936 ft | 448 kts | 136° |
| 2026-04-26 23:01 | 0.86352 | -59.40097 | 37179 ft | 447 kts | 136° |
| 2026-04-26 23:01 | 0.84069 | -59.37985 | 37408 ft | 446 kts | 136° |
| 2026-04-26 23:01 | 0.81789 | -59.35877 | 37607 ft | 446 kts | 136° |
| 2026-04-26 23:02 | 0.79521 | -59.33755 | 37786 ft | 446 kts | 134° |
| 2026-04-26 23:02 | 0.77347 | -59.31544 | 37987 ft | 446 kts | 133° |
| 2026-04-26 23:02 | 0.75219 | -59.29289 | 38122 ft | 446 kts | 132° |
| 2026-04-26 23:02 | 0.73104 | -59.27013 | 38278 ft | 447 kts | 131° |
| 2026-04-26 23:03 | 0.71017 | -59.24763 | 38466 ft | 446 kts | 132° |
| 2026-04-26 23:03 | 0.68903 | -59.22493 | 38658 ft | 445 kts | 132° |
| 2026-04-26 23:03 | 0.66789 | -59.20234 | 38802 ft | 445 kts | 132° |
| 2026-04-26 23:04 | 0.62555 | -59.15731 | 38897 ft | 442 kts | 133° |
| 2026-04-26 23:04 | 0.58341 | -59.11263 | 38920 ft | 441 kts | 133° |
| 2026-04-26 23:05 | 0.54154 | -59.06826 | 38921 ft | 442 kts | 133° |
| 2026-04-26 23:05 | 0.49929 | -59.02346 | 38909 ft | 443 kts | 132° |
| 2026-04-26 23:06 | 0.45695 | -58.97858 | 38921 ft | 444 kts | 132° |
| 2026-04-26 23:06 | 0.41456 | -58.93363 | 38920 ft | 445 kts | 132° |
| 2026-04-26 23:07 | 0.37202 | -58.88853 | 38913 ft | 446 kts | 132° |
| 2026-04-26 23:07 | 0.32937 | -58.84331 | 38913 ft | 447 kts | 132° |
| 2026-04-26 23:08 | 0.28667 | -58.79804 | 38916 ft | 447 kts | 132° |
| 2026-04-26 23:08 | 0.24393 | -58.75273 | 38911 ft | 448 kts | 132° |
| 2026-04-26 23:09 | 0.20149 | -58.70773 | 38913 ft | 448 kts | 133° |
| 2026-04-26 23:09 | 0.15872 | -58.66239 | 38913 ft | 447 kts | 133° |